createdAt,value
2023-05-14T00:01:08.175Z,8.77
2023-05-14T00:03:11.128Z,9.88
2023-05-14T00:05:13.803Z,9.35
2023-05-14T00:07:16.700Z,9.50
2023-05-14T00:09:20.611Z,9.20
2023-05-14T00:11:23.200Z,9.40
2023-05-14T00:13:26.271Z,9.50
2023-05-14T00:15:28.854Z,9.35
2023-05-14T00:17:31.493Z,9.27
2023-05-14T00:19:34.070Z,8.82
2023-05-14T00:21:36.658Z,8.52
2023-05-14T00:23:39.316Z,9.18
2023-05-14T00:25:43.446Z,9.02
2023-05-14T00:27:46.042Z,8.63
2023-05-14T00:29:48.597Z,9.32
2023-05-14T00:31:51.337Z,8.10
2023-05-14T00:33:54.050Z,8.85
2023-05-14T00:35:56.695Z,8.07
2023-05-14T00:37:59.273Z,8.95
2023-05-14T00:40:01.838Z,9.75
2023-05-14T00:42:06.119Z,8.95
2023-05-14T00:44:08.726Z,9.32
2023-05-14T00:46:12.399Z,9.20
2023-05-14T00:48:15.138Z,8.82
2023-05-14T00:50:18.830Z,8.93
2023-05-14T00:52:22.070Z,9.50
2023-05-14T00:54:25.026Z,9.95
2023-05-14T00:56:29.107Z,9.65
2023-05-14T00:58:33.412Z,8.88
2023-05-14T01:00:36.285Z,8.38
2023-05-14T01:02:39.055Z,8.52
2023-05-14T01:04:41.874Z,8.70
2023-05-14T01:06:55.061Z,8.82
2023-05-14T01:09:04.517Z,9.25
2023-05-14T01:11:12.513Z,9.07
2023-05-14T01:13:24.212Z,8.82
2023-05-14T01:15:31.743Z,9.00
2023-05-14T01:17:39.312Z,9.25
2023-05-14T01:19:43.862Z,9.23
2023-05-14T01:21:47.809Z,8.98
2023-05-14T01:23:50.377Z,9.23
2023-05-14T01:25:52.967Z,9.45
2023-05-14T01:28:02.227Z,9.98
2023-05-14T01:30:13.411Z,10.30
2023-05-14T01:32:18.446Z,10.25
2023-05-14T01:34:23.847Z,10.35
2023-05-14T01:36:27.417Z,9.85
2023-05-14T01:38:33.916Z,10.30
2023-05-14T01:40:37.912Z,9.57
2023-05-14T01:42:41.385Z,9.25
2023-05-14T01:44:44.276Z,8.93
2023-05-14T01:46:46.849Z,9.75
2023-05-14T01:48:49.419Z,9.45
2023-05-14T01:50:51.991Z,10.20
2023-05-14T01:52:56.518Z,9.45
2023-05-14T01:55:00.809Z,10.02
2023-05-14T01:57:03.381Z,9.52
2023-05-14T01:59:06.205Z,10.00
2023-05-14T02:01:08.766Z,9.43
2023-05-14T02:03:11.420Z,10.10
2023-05-14T02:05:14.498Z,9.07
2023-05-14T02:07:17.176Z,9.45
2023-05-14T02:09:20.884Z,9.65
2023-05-14T02:11:24.789Z,8.77
2023-05-14T02:13:27.410Z,8.13
2023-05-14T02:15:29.967Z,8.10
2023-05-14T02:17:32.627Z,8.82
2023-05-14T02:19:35.241Z,8.27
2023-05-14T02:21:37.812Z,8.45
2023-05-14T02:23:42.021Z,9.30
2023-05-14T02:25:45.119Z,8.75
2023-05-14T02:27:49.494Z,8.98
2023-05-14T02:29:52.075Z,8.65
2023-05-14T02:31:54.830Z,8.82
2023-05-14T02:33:57.577Z,9.07
2023-05-14T02:36:00.162Z,8.65
2023-05-14T02:38:02.764Z,9.40
2023-05-14T02:40:06.524Z,9.20
2023-05-14T02:42:09.130Z,9.68
2023-05-14T02:44:13.079Z,9.35
2023-05-14T02:46:15.667Z,8.88
2023-05-14T02:48:18.250Z,9.75
2023-05-14T02:50:20.920Z,10.05
2023-05-14T02:52:23.729Z,9.85
2023-05-14T02:54:26.280Z,9.38
2023-05-14T02:56:28.874Z,9.55
2023-05-14T02:58:31.441Z,9.40
2023-05-14T03:00:35.437Z,9.55
2023-05-14T03:02:38.735Z,9.77
2023-05-14T03:04:41.688Z,9.77
2023-05-14T03:06:44.220Z,8.60
2023-05-14T03:08:46.814Z,10.68
2023-05-14T03:10:49.383Z,10.02
2023-05-14T03:12:51.966Z,11.00
2023-05-14T03:14:54.513Z,9.38
2023-05-14T03:16:58.500Z,9.38
2023-05-14T03:19:01.176Z,10.35
2023-05-14T03:21:04.364Z,9.95
2023-05-14T03:23:07.114Z,10.05
2023-05-14T03:25:10.247Z,10.70
2023-05-14T03:27:12.800Z,10.45
2023-05-14T03:29:18.003Z,11.20
2023-05-14T03:31:20.789Z,11.25
2023-05-14T03:33:24.790Z,11.10
2023-05-14T03:35:27.463Z,10.48
2023-05-14T03:37:30.071Z,10.35
2023-05-14T03:39:32.698Z,10.30
2023-05-14T03:41:35.912Z,10.60
2023-05-14T03:43:38.527Z,10.82
2023-05-14T03:45:41.249Z,11.30
2023-05-14T03:47:43.838Z,10.95
2023-05-14T03:49:47.819Z,10.45
2023-05-14T03:51:50.574Z,9.60
2023-05-14T03:53:53.101Z,10.45
2023-05-14T03:55:55.666Z,10.00
2023-05-14T03:57:58.211Z,9.90
2023-05-14T04:00:00.782Z,10.00
2023-05-14T04:02:03.405Z,11.18
2023-05-14T04:04:06.266Z,9.57
2023-05-14T04:06:10.229Z,10.15
2023-05-14T04:08:12.776Z,10.32
2023-05-14T04:10:15.387Z,10.00
2023-05-14T04:12:17.953Z,10.15
2023-05-14T04:14:23.002Z,9.93
2023-05-14T04:16:25.753Z,10.07
2023-05-14T04:18:28.426Z,9.88
2023-05-14T04:20:31.050Z,9.75
2023-05-14T04:22:34.971Z,9.70
2023-05-14T04:24:37.602Z,10.15
2023-05-14T04:26:40.190Z,9.73
2023-05-14T04:28:42.772Z,10.52
2023-05-14T04:30:45.655Z,9.93
2023-05-14T04:32:48.267Z,10.13
2023-05-14T04:34:50.910Z,10.70
2023-05-14T04:36:53.482Z,10.80
2023-05-14T04:39:00.121Z,10.00
2023-05-14T04:41:02.974Z,9.95
2023-05-14T04:43:05.539Z,10.10
2023-05-14T04:45:09.188Z,10.13
2023-05-14T04:47:12.482Z,10.00
2023-05-14T04:49:15.048Z,11.23
2023-05-14T04:51:17.619Z,12.35
2023-05-14T04:53:20.263Z,12.20
2023-05-14T04:55:24.284Z,12.18
2023-05-14T04:57:26.852Z,13.65
2023-05-14T04:59:29.428Z,13.40
2023-05-14T05:01:32.070Z,12.57
2023-05-14T05:03:34.768Z,12.10
2023-05-14T05:05:37.338Z,11.77
2023-05-14T05:07:39.888Z,11.85
2023-05-14T05:09:44.002Z,13.88
2023-05-14T05:11:47.926Z,12.55
2023-05-14T05:13:50.479Z,13.10
2023-05-14T05:15:53.067Z,12.57
2023-05-14T05:17:55.673Z,12.27
2023-05-14T05:19:58.281Z,12.55
2023-05-14T05:22:00.862Z,13.30
2023-05-14T05:24:03.503Z,13.23
2023-05-14T05:26:06.313Z,12.60
2023-05-14T05:28:10.244Z,12.55
2023-05-14T05:30:13.514Z,13.60
2023-05-14T05:32:16.139Z,12.32
2023-05-14T05:34:19.441Z,12.68
2023-05-14T05:36:22.004Z,12.20
2023-05-14T05:38:24.572Z,12.93
2023-05-14T05:40:27.362Z,11.73
2023-05-14T05:42:29.920Z,11.98
2023-05-14T05:44:33.896Z,12.40
2023-05-14T05:46:36.686Z,12.50
2023-05-14T05:48:39.236Z,12.20
2023-05-14T05:50:42.814Z,11.90
2023-05-14T05:52:45.439Z,12.38
2023-05-14T05:54:47.978Z,12.45
2023-05-14T05:56:50.708Z,12.32
2023-05-14T05:58:53.276Z,12.27
2023-05-14T06:00:57.690Z,11.30
2023-05-14T06:03:00.360Z,12.82
2023-05-14T06:05:03.222Z,11.32
2023-05-14T06:07:06.060Z,12.15
2023-05-14T06:09:08.987Z,12.05
2023-05-14T06:11:11.588Z,12.07
2023-05-14T06:13:14.229Z,11.45
2023-05-14T06:15:16.925Z,11.02
2023-05-14T06:17:20.827Z,11.85
2023-05-14T06:19:24.013Z,10.73
2023-05-14T06:21:26.630Z,10.88
2023-05-14T06:23:29.208Z,10.98
2023-05-14T06:25:33.264Z,10.90
2023-05-14T06:27:35.839Z,11.23
2023-05-14T06:29:38.473Z,12.50
2023-05-14T06:31:41.139Z,11.30
2023-05-14T06:33:45.271Z,11.68
2023-05-14T06:35:47.926Z,11.18
2023-05-14T06:37:50.510Z,11.50
2023-05-14T06:39:54.375Z,11.80
2023-05-14T06:41:57.810Z,12.07
2023-05-14T06:44:00.359Z,11.75
2023-05-14T06:46:02.934Z,11.50
2023-05-14T06:48:06.169Z,11.85
2023-05-14T06:50:11.255Z,12.38
2023-05-14T06:52:13.860Z,11.73
2023-05-14T06:54:20.439Z,12.52
2023-05-14T06:56:23.503Z,11.88
2023-05-14T06:58:26.076Z,11.35
2023-05-14T07:00:29.503Z,12.05
2023-05-14T07:02:32.219Z,12.57
2023-05-14T07:04:35.030Z,12.18
2023-05-14T07:06:39.055Z,12.90
2023-05-14T07:08:41.880Z,11.48
2023-05-14T07:10:44.460Z,13.73
2023-05-14T07:12:47.015Z,11.80
2023-05-14T07:14:49.995Z,12.18
2023-05-14T07:16:52.787Z,12.20
2023-05-14T07:18:55.545Z,11.80
2023-05-14T07:20:58.175Z,12.65
2023-05-14T07:23:02.082Z,12.90
2023-05-14T07:25:04.857Z,12.27
2023-05-14T07:27:08.498Z,12.80
2023-05-14T07:29:11.050Z,12.48
2023-05-14T07:31:13.694Z,13.30
2023-05-14T07:33:16.275Z,12.40
2023-05-14T07:35:18.853Z,13.55
2023-05-14T07:37:24.172Z,13.60
2023-05-14T07:39:28.245Z,13.90
2023-05-14T07:41:30.786Z,14.20
2023-05-14T07:43:33.435Z,13.82
2023-05-14T07:45:37.593Z,13.30
2023-05-14T07:47:40.716Z,12.20
2023-05-14T07:49:43.422Z,13.10
2023-05-14T07:51:46.142Z,12.82
2023-05-14T07:53:48.721Z,12.45
2023-05-14T07:55:52.787Z,11.90
2023-05-14T07:57:55.548Z,12.90
2023-05-14T07:59:58.137Z,13.02
2023-05-14T08:02:01.002Z,12.60
2023-05-14T08:04:03.653Z,12.60
2023-05-14T08:06:06.572Z,13.43
2023-05-14T08:08:12.467Z,13.95
2023-05-14T08:10:15.182Z,13.68
2023-05-14T08:12:19.114Z,14.45
2023-05-14T08:14:22.057Z,13.77
2023-05-14T08:16:26.146Z,14.35
2023-05-14T08:18:28.811Z,14.02
2023-05-14T08:20:31.629Z,14.70
2023-05-14T08:22:34.272Z,14.27
2023-05-14T08:24:36.874Z,14.23
2023-05-14T08:26:39.479Z,13.80
2023-05-14T08:28:43.360Z,14.63
2023-05-14T08:30:45.950Z,15.05
2023-05-14T08:32:48.592Z,13.90
2023-05-14T08:34:51.640Z,14.80
2023-05-14T08:36:54.557Z,14.82
2023-05-14T08:38:57.146Z,14.93
2023-05-14T08:41:00.511Z,15.15
2023-05-14T08:43:03.632Z,15.18
2023-05-14T08:45:12.951Z,14.15
2023-05-14T08:47:19.012Z,14.57
2023-05-14T08:49:28.851Z,15.35
2023-05-14T08:51:31.466Z,14.18
2023-05-14T08:53:34.037Z,14.63
2023-05-14T08:55:38.614Z,14.77
2023-05-14T08:57:41.235Z,14.25
2023-05-14T08:59:43.807Z,15.02
2023-05-14T09:01:49.262Z,15.13
2023-05-14T09:03:53.799Z,15.07
2023-05-14T09:05:59.393Z,15.40
2023-05-14T09:08:02.767Z,14.18
2023-05-14T09:10:06.093Z,14.98
2023-05-14T09:12:09.904Z,14.90
2023-05-14T09:14:12.920Z,14.77
2023-05-14T09:16:16.556Z,15.10
2023-05-14T09:18:20.969Z,14.35
2023-05-14T09:20:28.539Z,14.95
2023-05-14T09:22:32.847Z,15.70
2023-05-14T09:24:35.615Z,14.82
2023-05-14T09:26:38.161Z,14.93
2023-05-14T09:28:41.447Z,15.23
2023-05-14T09:30:47.580Z,15.00
2023-05-14T09:32:50.628Z,15.20
2023-05-14T09:34:54.613Z,15.70
2023-05-14T09:36:58.602Z,15.77
2023-05-14T09:39:04.007Z,15.68
2023-05-14T09:41:06.565Z,13.88
2023-05-14T09:43:10.051Z,14.23
2023-05-14T09:45:12.849Z,14.40
2023-05-14T09:47:16.325Z,14.70
2023-05-14T09:49:19.239Z,14.88
2023-05-14T09:51:23.164Z,14.52
2023-05-14T09:53:26.070Z,13.55
2023-05-14T09:55:29.055Z,14.20
2023-05-14T09:57:31.668Z,13.65
2023-05-14T09:59:34.283Z,14.07
2023-05-14T10:01:38.196Z,14.23
2023-05-14T10:03:41.599Z,13.68
2023-05-14T10:05:45.020Z,14.05
2023-05-14T10:07:50.512Z,14.77
2023-05-14T10:10:00.640Z,15.23
2023-05-14T10:12:03.372Z,14.85
2023-05-14T10:14:09.506Z,14.30
2023-05-14T10:16:17.373Z,14.55
2023-05-14T10:18:23.918Z,12.98
2023-05-14T10:20:28.652Z,12.88
2023-05-14T10:22:34.594Z,12.55
2023-05-14T10:24:39.236Z,11.40
2023-05-14T10:26:42.352Z,11.43
2023-05-14T10:28:45.263Z,10.82
2023-05-14T10:30:47.899Z,10.70
2023-05-14T10:32:50.619Z,11.02
2023-05-14T10:34:54.650Z,10.40
2023-05-14T10:37:00.402Z,10.63
2023-05-14T10:39:05.064Z,12.70
2023-05-14T10:41:12.717Z,11.23
2023-05-14T10:43:17.000Z,10.40
2023-05-14T10:45:19.985Z,12.05
2023-05-14T10:47:23.300Z,10.82
2023-05-14T10:49:39.842Z,11.93
2023-05-14T10:51:49.366Z,10.13
2023-05-14T10:53:52.156Z,11.20
2023-05-14T10:55:56.382Z,11.75
2023-05-14T10:58:01.373Z,9.85
2023-05-14T11:00:08.991Z,11.30
2023-05-14T11:02:23.432Z,9.43
2023-05-14T11:04:26.247Z,9.45
2023-05-14T11:06:29.221Z,8.82
2023-05-14T11:08:32.281Z,17.40
2023-05-14T11:10:35.986Z,13.75
2023-05-14T11:12:40.664Z,9.18
2023-05-14T11:14:44.675Z,21.23
2023-05-14T11:16:48.382Z,10.95
2023-05-14T11:18:55.767Z,9.23
2023-05-14T11:21:02.083Z,9.27
2023-05-14T11:23:04.636Z,8.45
2023-05-14T11:25:10.362Z,6.95
2023-05-14T11:27:13.159Z,7.05
2023-05-14T11:29:15.849Z,7.10
2023-05-14T11:31:20.007Z,8.00
2023-05-14T11:33:22.654Z,8.02
2023-05-14T11:35:25.545Z,7.65
2023-05-14T11:37:28.112Z,7.40
2023-05-14T11:39:31.873Z,7.20
2023-05-14T11:41:34.502Z,7.40
2023-05-14T11:43:37.439Z,8.18
2023-05-14T11:45:40.058Z,7.40
2023-05-14T11:47:44.004Z,8.30
2023-05-14T11:49:46.997Z,7.55
2023-05-14T11:51:49.535Z,7.45
2023-05-14T11:53:52.122Z,7.68
2023-05-14T11:55:57.641Z,6.70
2023-05-14T11:58:00.308Z,7.20
2023-05-14T12:00:04.622Z,9.00
2023-05-14T12:02:11.654Z,5.85
2023-05-14T12:04:16.236Z,6.82
2023-05-14T12:06:19.419Z,6.10
2023-05-14T12:08:22.375Z,6.57
2023-05-14T12:10:25.363Z,6.20
2023-05-14T12:12:28.293Z,6.57
2023-05-14T12:14:30.862Z,7.13
2023-05-14T12:16:35.440Z,7.30
2023-05-14T12:18:39.576Z,7.15
2023-05-14T12:20:48.800Z,6.25
2023-05-14T12:22:51.428Z,6.70
2023-05-14T12:24:55.309Z,6.55
2023-05-14T12:26:58.006Z,6.22
2023-05-14T12:29:01.984Z,6.55
2023-05-14T12:31:04.681Z,5.60
2023-05-14T12:33:07.303Z,6.85
2023-05-14T12:35:10.266Z,6.90
2023-05-14T12:37:14.203Z,6.82
2023-05-14T12:39:16.814Z,6.40
2023-05-14T12:41:19.439Z,6.95
2023-05-14T12:43:22.062Z,6.88
2023-05-14T12:45:24.804Z,6.30
2023-05-14T12:47:27.540Z,6.35
2023-05-14T12:49:30.115Z,5.93
2023-05-14T12:51:32.685Z,6.55
2023-05-14T12:53:36.672Z,6.45
2023-05-14T12:55:39.253Z,6.25
2023-05-14T12:57:42.561Z,5.88
2023-05-14T12:59:45.115Z,6.00
2023-05-14T13:01:47.702Z,6.70
2023-05-14T13:03:50.496Z,5.72
2023-05-14T13:05:53.685Z,6.63
2023-05-14T13:08:00.050Z,5.35
2023-05-14T13:10:05.519Z,5.65
2023-05-14T13:12:08.755Z,4.80
2023-05-14T13:14:11.336Z,4.65
2023-05-14T13:16:16.922Z,5.40
2023-05-14T13:18:19.640Z,4.85
2023-05-14T13:20:23.586Z,4.95
2023-05-14T13:22:26.222Z,5.38
2023-05-14T13:24:28.812Z,5.63
2023-05-14T13:26:32.760Z,5.88
2023-05-14T13:28:35.349Z,5.85
2023-05-14T13:30:37.976Z,5.82
2023-05-14T13:32:42.267Z,5.82
2023-05-14T13:34:44.972Z,6.30
2023-05-14T13:36:50.684Z,6.80
2023-05-14T13:38:53.231Z,5.38
2023-05-14T13:41:02.109Z,5.65
2023-05-14T13:43:06.032Z,5.93
2023-05-14T13:45:09.404Z,6.05
2023-05-14T13:47:11.962Z,5.15
2023-05-14T13:49:14.547Z,5.07
2023-05-14T13:51:17.277Z,5.53
2023-05-14T13:53:20.462Z,4.28
2023-05-14T13:55:23.156Z,4.80
2023-05-14T13:57:26.014Z,4.32
2023-05-14T13:59:29.925Z,4.82
2023-05-14T14:01:32.778Z,4.95
2023-05-14T14:03:35.402Z,5.57
2023-05-14T14:05:38.133Z,5.72
2023-05-14T14:07:40.782Z,6.72
2023-05-14T14:09:43.338Z,5.30
2023-05-14T14:11:45.928Z,5.57
2023-05-14T14:13:48.542Z,6.20
2023-05-14T14:15:52.790Z,6.30
2023-05-14T14:17:55.689Z,6.78
2023-05-14T14:19:58.270Z,7.40
2023-05-14T14:22:00.853Z,5.85
2023-05-14T14:24:03.507Z,5.40
2023-05-14T14:26:06.092Z,5.05
2023-05-14T14:28:08.647Z,4.93
2023-05-14T14:30:15.613Z,5.30
2023-05-14T14:32:20.193Z,5.13
2023-05-14T14:34:22.750Z,4.57
2023-05-14T14:36:25.298Z,4.20
2023-05-14T14:38:27.845Z,4.00
2023-05-14T14:40:30.576Z,4.88
2023-05-14T14:42:33.188Z,4.55
2023-05-14T14:44:35.758Z,4.50
2023-05-14T14:46:38.294Z,4.60
2023-05-14T14:48:42.188Z,4.07
2023-05-14T14:50:44.770Z,3.83
2023-05-14T14:52:47.998Z,4.55
2023-05-14T14:54:50.718Z,4.55
2023-05-14T14:56:53.390Z,4.15
2023-05-14T14:58:55.966Z,4.65
2023-05-14T15:00:59.164Z,5.82
2023-05-14T15:03:01.868Z,5.05
2023-05-14T15:05:06.893Z,4.97
2023-05-14T15:07:09.461Z,4.47
2023-05-14T15:09:12.036Z,4.90
2023-05-14T15:11:15.196Z,5.78
2023-05-14T15:13:17.741Z,4.88
2023-05-14T15:15:20.905Z,5.10
2023-05-14T15:17:23.947Z,4.78
2023-05-14T15:19:26.501Z,4.47
2023-05-14T15:21:30.458Z,4.20
2023-05-14T15:23:33.468Z,4.57
2023-05-14T15:25:36.772Z,4.22
2023-05-14T15:27:39.308Z,4.15
2023-05-14T15:29:42.355Z,4.65
2023-05-14T15:31:45.949Z,4.85
2023-05-14T15:33:48.551Z,4.45
2023-05-14T15:35:51.271Z,4.30
2023-05-14T15:37:56.953Z,4.57
2023-05-14T15:39:59.563Z,4.10
2023-05-14T15:42:02.170Z,4.95
2023-05-14T15:44:04.926Z,4.22
2023-05-14T15:46:08.455Z,4.28
2023-05-14T15:48:11.483Z,5.68
2023-05-14T15:50:14.063Z,4.53
2023-05-14T15:52:16.677Z,3.92
2023-05-14T15:54:20.647Z,3.38
2023-05-14T15:56:23.383Z,4.35
2023-05-14T15:58:26.087Z,4.25
2023-05-14T16:00:28.672Z,4.20
2023-05-14T16:02:33.221Z,4.03
2023-05-14T16:04:35.932Z,4.78
2023-05-14T16:06:41.844Z,4.47
2023-05-14T16:08:44.407Z,4.35
2023-05-14T16:10:48.296Z,4.68
2023-05-14T16:12:50.868Z,4.85
2023-05-14T16:14:53.914Z,4.70
2023-05-14T16:16:56.491Z,5.38
2023-05-14T16:18:59.103Z,5.07
2023-05-14T16:21:01.984Z,5.43
2023-05-14T16:23:04.554Z,6.00
2023-05-14T16:25:07.759Z,5.82
2023-05-14T16:27:11.936Z,5.03
2023-05-14T16:29:14.613Z,6.32
2023-05-14T16:31:17.228Z,8.70
2023-05-14T16:33:19.808Z,6.28
2023-05-14T16:35:22.400Z,6.47
2023-05-14T16:37:25.014Z,8.85
2023-05-14T16:39:27.575Z,6.75
2023-05-14T16:41:30.157Z,6.50
2023-05-14T16:43:34.073Z,6.57
2023-05-14T16:45:37.395Z,6.13
2023-05-14T16:47:40.031Z,6.45
2023-05-14T16:49:43.241Z,7.13
2023-05-14T16:51:46.007Z,6.78
2023-05-14T16:53:48.561Z,6.97
2023-05-14T16:55:51.130Z,7.22
2023-05-14T16:57:53.709Z,6.47
2023-05-14T16:59:57.704Z,6.63
2023-05-14T17:02:00.619Z,6.80
2023-05-14T17:04:03.352Z,7.07
2023-05-14T17:06:06.476Z,7.15
2023-05-14T17:08:09.050Z,7.30
2023-05-14T17:10:11.927Z,7.03
2023-05-14T17:12:14.492Z,7.18
2023-05-14T17:14:17.047Z,7.43
2023-05-14T17:16:21.918Z,6.70
2023-05-14T17:18:24.623Z,7.45
2023-05-14T17:20:28.581Z,7.63
2023-05-14T17:22:31.761Z,5.80
2023-05-14T17:24:35.086Z,7.18
2023-05-14T17:26:38.592Z,8.00
2023-05-14T17:28:41.145Z,6.63
2023-05-14T17:30:43.764Z,6.93
2023-05-14T17:32:50.308Z,7.05
2023-05-14T17:34:53.520Z,7.30
2023-05-14T17:36:56.068Z,7.53
2023-05-14T17:38:58.708Z,7.80
2023-05-14T17:41:02.060Z,7.68
2023-05-14T17:43:04.737Z,7.25
2023-05-14T17:45:08.838Z,6.45
2023-05-14T17:47:11.478Z,7.13
2023-05-14T17:49:15.413Z,6.53
2023-05-14T17:51:17.957Z,6.43
2023-05-14T17:53:20.614Z,6.65
2023-05-14T17:55:23.410Z,7.10
2023-05-14T17:57:26.607Z,6.07
2023-05-14T17:59:29.224Z,6.95
2023-05-14T18:01:31.913Z,7.53
2023-05-14T18:03:34.683Z,7.18
2023-05-14T18:05:39.357Z,6.15
2023-05-14T18:07:41.936Z,7.18
2023-05-14T18:12:19.331Z,7.15
2023-05-14T18:14:21.918Z,7.07
2023-05-14T18:16:24.639Z,6.18
2023-05-14T18:18:27.437Z,7.40
2023-05-14T18:20:30.059Z,6.38
2023-05-14T18:22:34.144Z,6.38
2023-05-14T18:24:36.687Z,6.53
2023-05-14T18:26:39.251Z,7.35
2023-05-14T18:28:42.332Z,6.25
2023-05-14T18:30:45.299Z,6.95
2023-05-14T18:32:47.917Z,6.40
2023-05-14T18:34:51.324Z,7.68
2023-05-14T18:36:53.972Z,7.28
2023-05-14T18:38:58.342Z,6.78
2023-05-14T18:41:00.989Z,6.82
2023-05-14T18:43:04.325Z,7.38
2023-05-14T18:45:07.563Z,7.25
2023-05-14T18:47:11.326Z,6.57
2023-05-14T18:49:13.861Z,7.13
2023-05-14T18:51:17.336Z,6.70
2023-05-14T18:53:19.915Z,6.63
2023-05-14T18:55:24.428Z,7.07
2023-05-14T18:57:29.031Z,5.57
2023-05-14T18:59:31.881Z,6.38
2023-05-14T19:01:34.450Z,6.88
2023-05-14T19:03:37.126Z,6.20
2023-05-14T19:05:39.848Z,6.82
2023-05-14T19:07:43.730Z,6.57
2023-05-14T19:09:47.303Z,6.68
2023-05-14T19:11:51.581Z,6.28
2023-05-14T19:13:56.968Z,6.90
2023-05-14T19:15:59.685Z,6.53
2023-05-14T19:18:02.575Z,6.53
2023-05-14T19:20:07.327Z,6.50
2023-05-14T19:22:09.911Z,6.88
2023-05-14T19:24:12.571Z,7.15
2023-05-14T19:26:15.251Z,6.30
2023-05-14T19:28:19.880Z,8.45
2023-05-14T19:30:22.809Z,6.95
2023-05-14T19:32:25.493Z,6.97
2023-05-14T19:34:28.070Z,6.60
2023-05-14T19:36:31.510Z,6.78
2023-05-14T19:38:34.305Z,6.10
2023-05-14T19:40:36.899Z,6.72
2023-05-14T19:42:39.484Z,7.13
2023-05-14T19:44:44.282Z,6.70
2023-05-14T19:46:47.006Z,6.40
2023-05-14T19:48:49.653Z,5.97
2023-05-14T19:50:52.826Z,6.63
2023-05-14T19:52:56.667Z,7.05
2023-05-14T19:54:59.208Z,7.15
2023-05-14T19:57:01.850Z,6.57
2023-05-14T19:59:04.448Z,6.57
2023-05-14T20:01:08.572Z,6.50
2023-05-14T20:03:11.289Z,6.90
2023-05-14T20:05:16.821Z,6.30
2023-05-14T20:07:20.316Z,7.40
2023-05-14T20:09:22.900Z,7.13
2023-05-14T20:11:25.582Z,6.97
2023-05-14T20:13:28.143Z,6.50
2023-05-14T20:15:31.156Z,7.00
2023-05-14T20:17:35.075Z,6.70
2023-05-14T20:19:37.617Z,6.82
2023-05-14T20:21:40.140Z,6.35
2023-05-14T20:23:42.673Z,6.30
2023-05-14T20:25:45.294Z,6.75
2023-05-14T20:27:47.872Z,6.65
2023-05-14T20:29:51.432Z,7.18
2023-05-14T20:31:53.962Z,6.30
2023-05-14T20:33:57.924Z,6.75
2023-05-14T20:36:03.537Z,7.10
2023-05-14T20:38:06.512Z,6.25
2023-05-14T20:40:12.546Z,7.03
2023-05-14T20:42:15.492Z,6.97
2023-05-14T20:44:19.175Z,6.80
2023-05-14T20:46:23.192Z,7.13
2023-05-14T20:48:25.963Z,7.43
2023-05-14T20:50:30.088Z,6.60
2023-05-14T20:52:32.691Z,8.45
2023-05-14T20:54:35.296Z,7.05
2023-05-14T20:56:37.868Z,7.32
2023-05-14T20:58:40.446Z,8.32
2023-05-14T21:00:43.272Z,8.18
2023-05-14T21:02:46.452Z,8.90
2023-05-14T21:04:49.209Z,8.25
2023-05-14T21:06:53.214Z,8.05
2023-05-14T21:08:55.781Z,7.93
2023-05-14T21:10:58.402Z,8.93
2023-05-14T21:13:00.983Z,7.85
2023-05-14T21:15:03.619Z,8.18
2023-05-14T21:17:06.567Z,8.27
2023-05-14T21:19:09.329Z,8.35
2023-05-14T21:21:11.899Z,8.00
2023-05-14T21:23:16.052Z,8.23
2023-05-14T21:25:19.134Z,7.80
2023-05-14T21:27:24.552Z,8.15
2023-05-14T21:29:27.384Z,8.52
2023-05-14T21:31:30.006Z,8.32
2023-05-14T21:33:32.908Z,7.53
2023-05-14T21:35:35.467Z,8.45
2023-05-14T21:37:39.336Z,7.07
2023-05-14T21:39:43.267Z,7.05
2023-05-14T21:41:45.863Z,7.60
2023-05-14T21:43:48.519Z,8.18
2023-05-14T21:45:51.069Z,7.70
2023-05-14T21:47:53.798Z,7.97
2023-05-14T21:49:56.438Z,6.47
2023-05-14T21:51:58.988Z,7.22
2023-05-14T21:54:01.569Z,7.53
2023-05-14T21:56:06.035Z,7.32
2023-05-14T21:58:09.324Z,7.07
2023-05-14T22:00:13.309Z,6.80
2023-05-14T22:02:15.958Z,7.10
2023-05-14T22:04:18.620Z,7.03
2023-05-14T22:06:21.393Z,7.05
2023-05-14T22:08:24.418Z,7.43
2023-05-14T22:10:27.044Z,7.45
2023-05-14T22:12:31.255Z,6.95
2023-05-14T22:14:33.940Z,8.07
2023-05-14T22:16:36.560Z,7.13
2023-05-14T22:18:39.419Z,7.00
2023-05-14T22:20:42.072Z,7.22
2023-05-14T22:22:44.647Z,6.80
2023-05-14T22:24:47.229Z,6.68
2023-05-14T22:26:49.821Z,6.70
2023-05-14T22:28:53.757Z,6.53
2023-05-14T22:30:56.454Z,6.88
2023-05-14T22:32:59.150Z,7.00
2023-05-14T22:35:04.186Z,7.25
2023-05-14T22:37:09.596Z,6.55
2023-05-14T22:39:13.504Z,7.45
2023-05-14T22:41:17.405Z,7.50
2023-05-14T22:43:19.955Z,6.90
2023-05-14T22:45:24.185Z,6.95
2023-05-14T22:47:26.993Z,9.00
2023-05-14T22:49:29.621Z,7.28
2023-05-14T22:51:32.688Z,7.15
2023-05-14T22:53:35.264Z,7.47
2023-05-14T22:55:37.938Z,7.28
2023-05-14T22:57:40.602Z,6.47
2023-05-14T22:59:43.152Z,6.93
2023-05-14T23:01:47.171Z,6.65
2023-05-14T23:03:49.771Z,6.95
2023-05-14T23:05:53.013Z,7.10
2023-05-14T23:07:56.025Z,6.63
2023-05-14T23:09:58.696Z,6.20
2023-05-14T23:12:01.290Z,6.57
2023-05-14T23:14:03.861Z,6.63
2023-05-14T23:16:06.673Z,7.35
2023-05-14T23:18:10.794Z,6.35
2023-05-14T23:20:13.733Z,6.75
2023-05-14T23:22:16.316Z,6.15
2023-05-14T23:24:18.925Z,6.53
2023-05-14T23:26:21.591Z,6.28
2023-05-14T23:28:24.295Z,5.93
2023-05-14T23:30:26.847Z,6.05
2023-05-14T23:32:29.483Z,6.38
2023-05-14T23:34:34.585Z,5.68
2023-05-14T23:36:37.341Z,6.00
2023-05-14T23:38:40.658Z,5.75
2023-05-14T23:40:43.256Z,5.35
2023-05-14T23:42:46.383Z,5.70
2023-05-14T23:44:49.082Z,6.43
2023-05-14T23:46:51.717Z,6.07
2023-05-14T23:48:57.012Z,5.80
2023-05-14T23:51:03.568Z,5.90
2023-05-14T23:53:06.111Z,5.82
2023-05-14T23:55:09.420Z,6.07
2023-05-14T23:57:14.509Z,5.15
2023-05-14T23:59:17.392Z,5.65
